sensor_id;sensor_type;location;lat;lon;timestamp;P1;durP1;ratioP1;P2;durP2;ratioP2
31906;SDS011;18455;50.858;13.662;2022-08-02T00:01:19;3.08;;;1.92;;
31906;SDS011;18455;50.858;13.662;2022-08-02T00:06:19;2.28;;;1.80;;
31906;SDS011;18455;50.858;13.662;2022-08-02T00:11:20;1.80;;;1.70;;
31906;SDS011;18455;50.858;13.662;2022-08-02T00:16:20;2.30;;;2.10;;
31906;SDS011;18455;50.858;13.662;2022-08-02T00:21:20;1.80;;;1.70;;
31906;SDS011;18455;50.858;13.662;2022-08-02T00:26:21;8.07;;;2.30;;
31906;SDS011;18455;50.858;13.662;2022-08-02T00:31:21;2.30;;;2.10;;
31906;SDS011;18455;50.858;13.662;2022-08-02T00:36:21;1.67;;;1.58;;
31906;SDS011;18455;50.858;13.662;2022-08-02T00:41:22;2.30;;;2.10;;
31906;SDS011;18455;50.858;13.662;2022-08-02T00:46:22;3.30;;;1.77;;
31906;SDS011;18455;50.858;13.662;2022-08-02T00:51:22;3.17;;;2.15;;
31906;SDS011;18455;50.858;13.662;2022-08-02T00:56:23;2.85;;;2.20;;
31906;SDS011;18455;50.858;13.662;2022-08-02T01:01:23;2.15;;;1.98;;
31906;SDS011;18455;50.858;13.662;2022-08-02T01:06:40;3.50;;;1.77;;
31906;SDS011;18455;50.858;13.662;2022-08-02T01:11:41;3.25;;;2.30;;
31906;SDS011;18455;50.858;13.662;2022-08-02T01:17:02;5.57;;;2.10;;
31906;SDS011;18455;50.858;13.662;2022-08-02T01:22:10;3.90;;;1.90;;
31906;SDS011;18455;50.858;13.662;2022-08-02T01:32:32;2.28;;;2.05;;
31906;SDS011;18455;50.858;13.662;2022-08-02T01:37:40;3.30;;;1.92;;
31906;SDS011;18455;50.858;13.662;2022-08-02T01:42:45;1.73;;;1.63;;
31906;SDS011;18455;50.858;13.662;2022-08-02T01:47:46;2.30;;;2.10;;
31906;SDS011;18455;50.858;13.662;2022-08-02T01:52:47;2.50;;;2.30;;
31906;SDS011;18455;50.858;13.662;2022-08-02T01:57:52;2.30;;;2.00;;
31906;SDS011;18455;50.858;13.662;2022-08-02T02:02:56;2.25;;;2.05;;
31906;SDS011;18455;50.858;13.662;2022-08-02T02:07:58;3.42;;;2.15;;
31906;SDS011;18455;50.858;13.662;2022-08-02T02:13:01;7.63;;;2.30;;
31906;SDS011;18455;50.858;13.662;2022-08-02T02:18:03;3.67;;;2.13;;
31906;SDS011;18455;50.858;13.662;2022-08-02T02:23:05;2.85;;;2.65;;
31906;SDS011;18455;50.858;13.662;2022-08-02T02:28:06;2.38;;;2.05;;
31906;SDS011;18455;50.858;13.662;2022-08-02T02:33:08;4.55;;;2.60;;
31906;SDS011;18455;50.858;13.662;2022-08-02T02:38:11;2.40;;;2.22;;
31906;SDS011;18455;50.858;13.662;2022-08-02T02:43:13;2.50;;;2.30;;
31906;SDS011;18455;50.858;13.662;2022-08-02T02:48:13;3.53;;;2.22;;
31906;SDS011;18455;50.858;13.662;2022-08-02T02:53:15;2.20;;;2.00;;
31906;SDS011;18455;50.858;13.662;2022-08-02T02:58:17;2.55;;;2.35;;
31906;SDS011;18455;50.858;13.662;2022-08-02T03:03:18;3.40;;;2.47;;
31906;SDS011;18455;50.858;13.662;2022-08-02T03:08:19;2.80;;;2.60;;
31906;SDS011;18455;50.858;13.662;2022-08-02T03:13:19;3.72;;;2.47;;
31906;SDS011;18455;50.858;13.662;2022-08-02T03:18:30;2.63;;;2.42;;
31906;SDS011;18455;50.858;13.662;2022-08-02T03:23:38;2.38;;;2.17;;
31906;SDS011;18455;50.858;13.662;2022-08-02T03:28:40;5.03;;;2.65;;
31906;SDS011;18455;50.858;13.662;2022-08-02T03:33:40;2.58;;;2.38;;
31906;SDS011;18455;50.858;13.662;2022-08-02T03:38:41;2.90;;;2.42;;
31906;SDS011;18455;50.858;13.662;2022-08-02T03:43:43;4.25;;;2.88;;
31906;SDS011;18455;50.858;13.662;2022-08-02T03:48:45;2.90;;;2.70;;
31906;SDS011;18455;50.858;13.662;2022-08-02T03:53:47;3.00;;;2.70;;
31906;SDS011;18455;50.858;13.662;2022-08-02T03:58:48;2.70;;;2.50;;
31906;SDS011;18455;50.858;13.662;2022-08-02T04:03:48;3.70;;;2.92;;
31906;SDS011;18455;50.858;13.662;2022-08-02T04:08:48;3.30;;;3.00;;
31906;SDS011;18455;50.858;13.662;2022-08-02T04:13:51;6.50;;;2.90;;
31906;SDS011;18455;50.858;13.662;2022-08-02T04:18:53;3.30;;;3.00;;
31906;SDS011;18455;50.858;13.662;2022-08-02T04:23:55;3.17;;;2.88;;
31906;SDS011;18455;50.858;13.662;2022-08-02T04:28:56;3.58;;;2.38;;
31906;SDS011;18455;50.858;13.662;2022-08-02T04:33:57;3.17;;;2.88;;
31906;SDS011;18455;50.858;13.662;2022-08-02T04:38:57;3.05;;;2.85;;
31906;SDS011;18455;50.858;13.662;2022-08-02T04:43:58;3.17;;;2.80;;
31906;SDS011;18455;50.858;13.662;2022-08-02T04:48:59;3.30;;;2.60;;
31906;SDS011;18455;50.858;13.662;2022-08-02T04:53:59;5.15;;;2.88;;
31906;SDS011;18455;50.858;13.662;2022-08-02T04:58:59;3.17;;;2.88;;
31906;SDS011;18455;50.858;13.662;2022-08-02T05:04:00;3.17;;;2.58;;
31906;SDS011;18455;50.858;13.662;2022-08-02T05:09:00;2.83;;;2.63;;
31906;SDS011;18455;50.858;13.662;2022-08-02T05:14:01;3.30;;;2.58;;
31906;SDS011;18455;50.858;13.662;2022-08-02T05:19:01;2.90;;;2.55;;
31906;SDS011;18455;50.858;13.662;2022-08-02T05:24:02;2.92;;;2.67;;
31906;SDS011;18455;50.858;13.662;2022-08-02T05:29:02;2.70;;;2.50;;
31906;SDS011;18455;50.858;13.662;2022-08-02T05:34:03;6.05;;;2.40;;
31906;SDS011;18455;50.858;13.662;2022-08-02T05:39:03;2.60;;;2.40;;
31906;SDS011;18455;50.858;13.662;2022-08-02T05:44:04;2.78;;;2.47;;
31906;SDS011;18455;50.858;13.662;2022-08-02T05:49:04;2.53;;;2.33;;
31906;SDS011;18455;50.858;13.662;2022-08-02T05:54:08;3.22;;;2.20;;
31906;SDS011;18455;50.858;13.662;2022-08-02T05:59:31;2.20;;;2.10;;
31906;SDS011;18455;50.858;13.662;2022-08-02T06:04:53;1.83;;;1.73;;
31906;SDS011;18455;50.858;13.662;2022-08-02T06:09:58;2.00;;;1.90;;
31906;SDS011;18455;50.858;13.662;2022-08-02T06:14:58;1.90;;;1.80;;
31906;SDS011;18455;50.858;13.662;2022-08-02T06:19:59;3.78;;;2.10;;
31906;SDS011;18455;50.858;13.662;2022-08-02T06:25:00;2.30;;;2.00;;
31906;SDS011;18455;50.858;13.662;2022-08-02T06:30:01;2.58;;;1.60;;
31906;SDS011;18455;50.858;13.662;2022-08-02T06:35:02;1.70;;;1.58;;
31906;SDS011;18455;50.858;13.662;2022-08-02T06:45:12;1.67;;;1.55;;
31906;SDS011;18455;50.858;13.662;2022-08-02T06:50:12;2.85;;;1.60;;
31906;SDS011;18455;50.858;13.662;2022-08-02T06:55:13;1.95;;;1.50;;
31906;SDS011;18455;50.858;13.662;2022-08-02T07:00:13;4.53;;;1.60;;
31906;SDS011;18455;50.858;13.662;2022-08-02T07:05:14;3.15;;;1.90;;
31906;SDS011;18455;50.858;13.662;2022-08-02T07:10:14;1.83;;;1.65;;
31906;SDS011;18455;50.858;13.662;2022-08-02T07:15:15;1.80;;;1.70;;
31906;SDS011;18455;50.858;13.662;2022-08-02T07:20:15;2.35;;;2.00;;
31906;SDS011;18455;50.858;13.662;2022-08-02T07:25:15;2.63;;;2.35;;
31906;SDS011;18455;50.858;13.662;2022-08-02T07:30:16;2.30;;;1.88;;
31906;SDS011;18455;50.858;13.662;2022-08-02T07:35:16;1.60;;;1.50;;
31906;SDS011;18455;50.858;13.662;2022-08-02T07:40:17;2.75;;;1.42;;
31906;SDS011;18455;50.858;13.662;2022-08-02T07:45:17;1.80;;;1.70;;
31906;SDS011;18455;50.858;13.662;2022-08-02T07:50:19;1.92;;;1.70;;
31906;SDS011;18455;50.858;13.662;2022-08-02T08:56:19;1.42;;;1.33;;
31906;SDS011;18455;50.858;13.662;2022-08-02T09:01:19;5.82;;;1.52;;
31906;SDS011;18455;50.858;13.662;2022-08-02T09:12:44;2.00;;;1.30;;
31906;SDS011;18455;50.858;13.662;2022-08-02T09:17:50;1.50;;;1.40;;
31906;SDS011;18455;50.858;13.662;2022-08-02T09:23:07;2.08;;;1.13;;
31906;SDS011;18455;50.858;13.662;2022-08-02T09:28:08;3.85;;;1.38;;
31906;SDS011;18455;50.858;13.662;2022-08-02T09:33:09;1.77;;;1.08;;
31906;SDS011;18455;50.858;13.662;2022-08-02T09:38:10;2.55;;;1.00;;
31906;SDS011;18455;50.858;13.662;2022-08-02T09:43:17;1.35;;;1.30;;
31906;SDS011;18455;50.858;13.662;2022-08-02T09:48:19;1.60;;;1.50;;
31906;SDS011;18455;50.858;13.662;2022-08-02T09:53:20;1.50;;;1.40;;
31906;SDS011;18455;50.858;13.662;2022-08-02T09:58:20;2.25;;;1.50;;
31906;SDS011;18455;50.858;13.662;2022-08-02T10:03:20;2.13;;;1.42;;
31906;SDS011;18455;50.858;13.662;2022-08-02T10:08:21;1.50;;;1.40;;
31906;SDS011;18455;50.858;13.662;2022-08-02T10:13:21;1.40;;;1.30;;
31906;SDS011;18455;50.858;13.662;2022-08-02T10:18:22;1.60;;;1.50;;
31906;SDS011;18455;50.858;13.662;2022-08-02T10:23:24;2.70;;;1.42;;
31906;SDS011;18455;50.858;13.662;2022-08-02T10:28:26;1.65;;;1.50;;
31906;SDS011;18455;50.858;13.662;2022-08-02T10:33:29;1.20;;;1.10;;
31906;SDS011;18455;50.858;13.662;2022-08-02T10:38:32;1.70;;;1.35;;
31906;SDS011;18455;50.858;13.662;2022-08-02T10:43:42;1.02;;;1.02;;
31906;SDS011;18455;50.858;13.662;2022-08-02T10:54:07;1.15;;;1.13;;
31906;SDS011;18455;50.858;13.662;2022-08-02T11:04:27;3.28;;;1.10;;
31906;SDS011;18455;50.858;13.662;2022-08-02T11:09:35;5.70;;;1.20;;
31906;SDS011;18455;50.858;13.662;2022-08-02T11:14:36;2.35;;;1.45;;
31906;SDS011;18455;50.858;13.662;2022-08-02T11:30:22;1.33;;;1.23;;
31906;SDS011;18455;50.858;13.662;2022-08-02T11:35:34;3.17;;;1.30;;
31906;SDS011;18455;50.858;13.662;2022-08-02T11:40:38;2.65;;;1.25;;
31906;SDS011;18455;50.858;13.662;2022-08-02T11:45:38;1.38;;;1.00;;
31906;SDS011;18455;50.858;13.662;2022-08-02T11:56:33;11.30;;;1.20;;
31906;SDS011;18455;50.858;13.662;2022-08-02T12:01:34;1.20;;;1.10;;
31906;SDS011;18455;50.858;13.662;2022-08-02T12:06:37;3.00;;;1.27;;
31906;SDS011;18455;50.858;13.662;2022-08-02T12:11:37;0.90;;;0.90;;
31906;SDS011;18455;50.858;13.662;2022-08-02T12:16:38;0.90;;;0.90;;
31906;SDS011;18455;50.858;13.662;2022-08-02T12:32:35;1.13;;;1.02;;
31906;SDS011;18455;50.858;13.662;2022-08-02T12:37:36;1.85;;;1.30;;
31906;SDS011;18455;50.858;13.662;2022-08-02T12:48:06;1.33;;;1.20;;
31906;SDS011;18455;50.858;13.662;2022-08-02T12:58:14;1.20;;;1.13;;
31906;SDS011;18455;50.858;13.662;2022-08-02T13:03:14;1.88;;;0.90;;
31906;SDS011;18455;50.858;13.662;2022-08-02T13:08:14;2.50;;;1.10;;
31906;SDS011;18455;50.858;13.662;2022-08-02T13:13:15;4.38;;;1.17;;
31906;SDS011;18455;50.858;13.662;2022-08-02T13:18:15;1.30;;;1.20;;
31906;SDS011;18455;50.858;13.662;2022-08-02T13:23:17;1.75;;;1.10;;
31906;SDS011;18455;50.858;13.662;2022-08-02T13:28:17;5.27;;;1.20;;
31906;SDS011;18455;50.858;13.662;2022-08-02T13:33:18;0.80;;;0.80;;
31906;SDS011;18455;50.858;13.662;2022-08-02T13:38:18;0.90;;;0.90;;
31906;SDS011;18455;50.858;13.662;2022-08-02T13:43:18;1.30;;;1.20;;
31906;SDS011;18455;50.858;13.662;2022-08-02T13:48:19;1.40;;;1.30;;
31906;SDS011;18455;50.858;13.662;2022-08-02T13:53:20;1.38;;;1.10;;
31906;SDS011;18455;50.858;13.662;2022-08-02T13:58:20;1.73;;;1.00;;
31906;SDS011;18455;50.858;13.662;2022-08-02T14:03:20;1.30;;;1.13;;
31906;SDS011;18455;50.858;13.662;2022-08-02T14:08:21;1.30;;;1.20;;
31906;SDS011;18455;50.858;13.662;2022-08-02T14:13:24;1.63;;;1.10;;
31906;SDS011;18455;50.858;13.662;2022-08-02T14:18:24;1.53;;;1.03;;
31906;SDS011;18455;50.858;13.662;2022-08-02T14:23:24;1.27;;;1.17;;
31906;SDS011;18455;50.858;13.662;2022-08-02T14:28:25;4.50;;;0.90;;
31906;SDS011;18455;50.858;13.662;2022-08-02T14:33:25;1.77;;;1.00;;
31906;SDS011;18455;50.858;13.662;2022-08-02T14:38:25;3.77;;;1.07;;
31906;SDS011;18455;50.858;13.662;2022-08-02T14:43:26;1.43;;;1.00;;
31906;SDS011;18455;50.858;13.662;2022-08-02T14:48:45;5.35;;;1.02;;
31906;SDS011;18455;50.858;13.662;2022-08-02T14:53:45;4.57;;;1.20;;
31906;SDS011;18455;50.858;13.662;2022-08-02T14:58:46;3.40;;;1.10;;
31906;SDS011;18455;50.858;13.662;2022-08-02T15:03:47;3.40;;;1.00;;
31906;SDS011;18455;50.858;13.662;2022-08-02T15:08:48;1.30;;;1.05;;
31906;SDS011;18455;50.858;13.662;2022-08-02T15:13:48;1.48;;;1.17;;
31906;SDS011;18455;50.858;13.662;2022-08-02T15:18:49;1.93;;;1.13;;
31906;SDS011;18455;50.858;13.662;2022-08-02T15:23:49;6.18;;;1.40;;
31906;SDS011;18455;50.858;13.662;2022-08-02T15:28:49;1.47;;;1.23;;
31906;SDS011;18455;50.858;13.662;2022-08-02T15:33:50;2.57;;;1.10;;
31906;SDS011;18455;50.858;13.662;2022-08-02T15:38:50;1.93;;;0.90;;
31906;SDS011;18455;50.858;13.662;2022-08-02T15:43:50;4.28;;;1.20;;
31906;SDS011;18455;50.858;13.662;2022-08-02T15:48:51;1.92;;;1.40;;
31906;SDS011;18455;50.858;13.662;2022-08-02T15:53:51;1.23;;;1.00;;
31906;SDS011;18455;50.858;13.662;2022-08-02T15:58:52;1.77;;;1.20;;
31906;SDS011;18455;50.858;13.662;2022-08-02T16:03:52;1.33;;;1.17;;
31906;SDS011;18455;50.858;13.662;2022-08-02T16:08:52;1.87;;;1.30;;
31906;SDS011;18455;50.858;13.662;2022-08-02T16:13:53;1.40;;;1.30;;
31906;SDS011;18455;50.858;13.662;2022-08-02T16:18:54;1.20;;;1.10;;
31906;SDS011;18455;50.858;13.662;2022-08-02T16:23:54;9.52;;;1.65;;
31906;SDS011;18455;50.858;13.662;2022-08-02T16:28:57;1.73;;;1.33;;
31906;SDS011;18455;50.858;13.662;2022-08-02T16:33:58;1.40;;;1.17;;
31906;SDS011;18455;50.858;13.662;2022-08-02T16:38:58;1.97;;;1.33;;
31906;SDS011;18455;50.858;13.662;2022-08-02T16:43:58;2.50;;;1.40;;
31906;SDS011;18455;50.858;13.662;2022-08-02T16:48:59;4.30;;;1.35;;
31906;SDS011;18455;50.858;13.662;2022-08-02T16:53:59;1.40;;;1.20;;
31906;SDS011;18455;50.858;13.662;2022-08-02T16:58:59;3.57;;;1.20;;
31906;SDS011;18455;50.858;13.662;2022-08-02T17:04:00;2.27;;;1.10;;
31906;SDS011;18455;50.858;13.662;2022-08-02T17:09:00;3.07;;;1.60;;
31906;SDS011;18455;50.858;13.662;2022-08-02T17:14:01;7.25;;;1.50;;
31906;SDS011;18455;50.858;13.662;2022-08-02T17:19:01;5.23;;;1.73;;
31906;SDS011;18455;50.858;13.662;2022-08-02T17:24:01;1.42;;;1.20;;
31906;SDS011;18455;50.858;13.662;2022-08-02T17:29:02;3.13;;;1.42;;
31906;SDS011;18455;50.858;13.662;2022-08-02T17:34:03;1.98;;;1.70;;
31906;SDS011;18455;50.858;13.662;2022-08-02T17:39:04;5.00;;;1.60;;
31906;SDS011;18455;50.858;13.662;2022-08-02T17:44:05;1.63;;;1.52;;
31906;SDS011;18455;50.858;13.662;2022-08-02T17:49:05;3.70;;;1.52;;
31906;SDS011;18455;50.858;13.662;2022-08-02T17:54:22;1.63;;;1.20;;
31906;SDS011;18455;50.858;13.662;2022-08-02T17:59:24;2.33;;;1.30;;
31906;SDS011;18455;50.858;13.662;2022-08-02T18:04:26;5.38;;;1.40;;
31906;SDS011;18455;50.858;13.662;2022-08-02T18:09:27;2.05;;;1.40;;
31906;SDS011;18455;50.858;13.662;2022-08-02T18:14:29;3.05;;;1.80;;
31906;SDS011;18455;50.858;13.662;2022-08-02T18:19:29;4.90;;;2.03;;
31906;SDS011;18455;50.858;13.662;2022-08-02T18:24:30;2.17;;;1.45;;
31906;SDS011;18455;50.858;13.662;2022-08-02T18:29:30;6.50;;;1.60;;
31906;SDS011;18455;50.858;13.662;2022-08-02T18:34:30;1.92;;;1.58;;
31906;SDS011;18455;50.858;13.662;2022-08-02T18:39:31;2.05;;;1.83;;
31906;SDS011;18455;50.858;13.662;2022-08-02T18:44:32;5.35;;;1.83;;
31906;SDS011;18455;50.858;13.662;2022-08-02T18:49:32;1.90;;;1.63;;
31906;SDS011;18455;50.858;13.662;2022-08-02T18:54:33;3.42;;;1.60;;
31906;SDS011;18455;50.858;13.662;2022-08-02T18:59:33;2.53;;;1.48;;
31906;SDS011;18455;50.858;13.662;2022-08-02T19:04:33;3.78;;;1.60;;
31906;SDS011;18455;50.858;13.662;2022-08-02T19:09:34;3.30;;;2.17;;
31906;SDS011;18455;50.858;13.662;2022-08-02T19:14:36;2.75;;;1.88;;
31906;SDS011;18455;50.858;13.662;2022-08-02T19:19:36;4.75;;;1.98;;
31906;SDS011;18455;50.858;13.662;2022-08-02T19:24:37;3.58;;;2.08;;
31906;SDS011;18455;50.858;13.662;2022-08-02T19:29:37;2.58;;;2.38;;
31906;SDS011;18455;50.858;13.662;2022-08-02T19:34:38;2.30;;;2.10;;
31906;SDS011;18455;50.858;13.662;2022-08-02T19:39:38;3.25;;;2.20;;
31906;SDS011;18455;50.858;13.662;2022-08-02T19:44:40;4.05;;;2.22;;
31906;SDS011;18455;50.858;13.662;2022-08-02T19:49:41;3.47;;;2.30;;
31906;SDS011;18455;50.858;13.662;2022-08-02T19:54:41;2.20;;;2.00;;
31906;SDS011;18455;50.858;13.662;2022-08-02T19:59:41;2.55;;;2.25;;
31906;SDS011;18455;50.858;13.662;2022-08-02T20:04:42;2.35;;;2.13;;
31906;SDS011;18455;50.858;13.662;2022-08-02T20:09:42;6.22;;;2.80;;
31906;SDS011;18455;50.858;13.662;2022-08-02T20:14:43;4.18;;;2.28;;
31906;SDS011;18455;50.858;13.662;2022-08-02T20:19:43;4.38;;;2.65;;
31906;SDS011;18455;50.858;13.662;2022-08-02T20:24:47;2.80;;;2.60;;
31906;SDS011;18455;50.858;13.662;2022-08-02T20:29:47;3.20;;;2.42;;
31906;SDS011;18455;50.858;13.662;2022-08-02T20:34:47;6.50;;;2.72;;
31906;SDS011;18455;50.858;13.662;2022-08-02T20:39:48;7.95;;;2.63;;
31906;SDS011;18455;50.858;13.662;2022-08-02T20:44:48;2.50;;;2.30;;
31906;SDS011;18455;50.858;13.662;2022-08-02T20:49:49;5.30;;;2.80;;
31906;SDS011;18455;50.858;13.662;2022-08-02T20:55:07;2.70;;;2.50;;
31906;SDS011;18455;50.858;13.662;2022-08-02T21:00:08;6.57;;;3.05;;
31906;SDS011;18455;50.858;13.662;2022-08-02T21:05:09;3.72;;;2.25;;
31906;SDS011;18455;50.858;13.662;2022-08-02T21:10:09;2.80;;;2.60;;
31906;SDS011;18455;50.858;13.662;2022-08-02T21:15:10;2.40;;;2.20;;
31906;SDS011;18455;50.858;13.662;2022-08-02T21:20:10;7.00;;;2.67;;
31906;SDS011;18455;50.858;13.662;2022-08-02T21:25:11;2.40;;;2.17;;
31906;SDS011;18455;50.858;13.662;2022-08-02T21:30:11;3.45;;;2.50;;
31906;SDS011;18455;50.858;13.662;2022-08-02T21:35:12;6.55;;;2.45;;
31906;SDS011;18455;50.858;13.662;2022-08-02T21:40:13;3.60;;;2.50;;
31906;SDS011;18455;50.858;13.662;2022-08-02T21:45:13;8.27;;;2.45;;
31906;SDS011;18455;50.858;13.662;2022-08-02T21:50:14;3.78;;;2.72;;
31906;SDS011;18455;50.858;13.662;2022-08-02T21:55:14;2.50;;;2.30;;
31906;SDS011;18455;50.858;13.662;2022-08-02T22:00:14;3.15;;;2.83;;
31906;SDS011;18455;50.858;13.662;2022-08-02T22:05:15;4.15;;;2.50;;
31906;SDS011;18455;50.858;13.662;2022-08-02T22:10:15;3.35;;;2.55;;
31906;SDS011;18455;50.858;13.662;2022-08-02T22:15:16;2.72;;;2.53;;
31906;SDS011;18455;50.858;13.662;2022-08-02T22:20:16;2.38;;;2.17;;
31906;SDS011;18455;50.858;13.662;2022-08-02T22:25:17;2.80;;;2.60;;
31906;SDS011;18455;50.858;13.662;2022-08-02T22:30:18;2.88;;;2.63;;
31906;SDS011;18455;50.858;13.662;2022-08-02T22:35:18;4.60;;;2.67;;
31906;SDS011;18455;50.858;13.662;2022-08-02T22:40:19;6.82;;;2.88;;
31906;SDS011;18455;50.858;13.662;2022-08-02T22:45:19;3.50;;;2.85;;
31906;SDS011;18455;50.858;13.662;2022-08-02T22:50:20;4.28;;;2.90;;
31906;SDS011;18455;50.858;13.662;2022-08-02T22:55:20;4.10;;;2.53;;
31906;SDS011;18455;50.858;13.662;2022-08-02T23:00:21;4.22;;;3.10;;
31906;SDS011;18455;50.858;13.662;2022-08-02T23:05:22;3.42;;;3.10;;
31906;SDS011;18455;50.858;13.662;2022-08-02T23:10:23;3.35;;;2.72;;
31906;SDS011;18455;50.858;13.662;2022-08-02T23:15:24;3.00;;;2.80;;
31906;SDS011;18455;50.858;13.662;2022-08-02T23:20:24;4.60;;;3.17;;
31906;SDS011;18455;50.858;13.662;2022-08-02T23:25:25;3.08;;;2.78;;
31906;SDS011;18455;50.858;13.662;2022-08-02T23:30:25;3.60;;;3.10;;
31906;SDS011;18455;50.858;13.662;2022-08-02T23:35:25;3.47;;;3.10;;
31906;SDS011;18455;50.858;13.662;2022-08-02T23:40:29;3.47;;;3.17;;
31906;SDS011;18455;50.858;13.662;2022-08-02T23:45:30;3.30;;;3.00;;
31906;SDS011;18455;50.858;13.662;2022-08-02T23:50:30;4.75;;;3.10;;
31906;SDS011;18455;50.858;13.662;2022-08-02T23:55:31;3.42;;;3.13;;
